createdAt,value
2023-02-04T00:00:38.946Z,96644.56
2023-02-04T00:03:07.330Z,96647.00
2023-02-04T00:05:35.516Z,96649.44
2023-02-04T00:08:03.861Z,96654.59
2023-02-04T00:10:32.313Z,96656.22
2023-02-04T00:13:00.566Z,96649.88
2023-02-04T00:15:28.596Z,96643.47
2023-02-04T00:17:57.927Z,96638.59
2023-02-04T00:20:25.796Z,96638.88
2023-02-04T00:22:53.709Z,96636.84
2023-02-04T00:25:21.594Z,96634.53
2023-02-04T00:27:49.566Z,96637.81
2023-02-04T00:30:17.961Z,96639.44
2023-02-04T00:32:45.865Z,96646.22
2023-02-04T00:35:15.253Z,96635.22
2023-02-04T00:37:43.208Z,96630.22
2023-02-04T00:40:12.402Z,96627.34
2023-02-04T00:42:41.014Z,96634.28
2023-02-04T00:45:09.924Z,96629.13
2023-02-04T00:47:37.889Z,96617.44
2023-02-04T00:50:06.402Z,96629.66
2023-02-04T00:52:35.695Z,96628.84
2023-02-04T00:55:03.863Z,96626.13
2023-02-04T00:57:31.782Z,96629.91
2023-02-04T00:59:59.749Z,96623.13
2023-02-04T01:02:27.681Z,96615.81
2023-02-04T01:04:55.561Z,96609.44
2023-02-04T01:07:23.487Z,96613.63
2023-02-04T01:09:52.796Z,96615.81
2023-02-04T01:12:23.004Z,96610.38
2023-02-04T01:14:51.092Z,96611.19
2023-02-04T01:17:19.908Z,96617.72
2023-02-04T01:19:47.964Z,96613.09
2023-02-04T01:22:15.864Z,96609.28
2023-02-04T01:24:43.801Z,96606.03
2023-02-04T01:27:48.365Z,96615.81
2023-02-04T01:30:16.845Z,96606.03
2023-02-04T01:32:44.788Z,96590.28
2023-02-04T01:35:12.682Z,96592.84
2023-02-04T01:37:40.594Z,96593.81
2023-02-04T01:40:09.612Z,96582.16
2023-02-04T01:42:37.610Z,96594.38
2023-02-04T01:45:08.446Z,96595.19
2023-02-04T01:47:36.675Z,96585.00
2023-02-04T01:50:08.817Z,96587.59
2023-02-04T01:52:40.861Z,96591.13
2023-02-04T01:55:15.868Z,96581.91
2023-02-04T01:57:45.154Z,96585.16
2023-02-04T02:00:18.244Z,96588.69
2023-02-04T02:02:50.664Z,96581.75
2023-02-04T02:05:23.268Z,96586.91
2023-02-04T02:07:54.157Z,96577.56
2023-02-04T02:10:22.468Z,96573.50
2023-02-04T02:12:50.609Z,96570.50
2023-02-04T02:15:20.230Z,96568.19
2023-02-04T02:17:48.611Z,96567.81
2023-02-04T02:20:19.174Z,96560.75
2023-02-04T02:22:57.111Z,96557.50
2023-02-04T02:25:26.408Z,96555.88
2023-02-04T02:27:55.293Z,96557.06
2023-02-04T02:30:23.665Z,96555.59
2023-02-04T02:32:53.288Z,96563.47
2023-02-04T02:35:22.236Z,96550.19
2023-02-04T02:37:50.936Z,96555.31
2023-02-04T02:40:19.620Z,96556.16
2023-02-04T02:42:52.553Z,96556.56
2023-02-04T02:45:26.632Z,96553.69
2023-02-04T02:47:55.476Z,96553.97
2023-02-04T02:50:26.552Z,96555.31
2023-02-04T02:52:55.701Z,96561.03
2023-02-04T02:55:26.306Z,96560.91
2023-02-04T02:57:57.065Z,96560.47
2023-02-04T03:00:28.257Z,96555.88
2023-02-04T03:03:02.748Z,96565.75
2023-02-04T03:05:33.724Z,96552.75
2023-02-04T03:08:01.928Z,96557.25
2023-02-04T03:10:30.232Z,96563.22
2023-02-04T03:13:00.884Z,96559.41
2023-02-04T03:15:29.090Z,96553.44
2023-02-04T03:17:57.373Z,96550.56
2023-02-04T03:20:27.802Z,96548.00
2023-02-04T03:22:56.551Z,96558.59
2023-02-04T03:25:26.666Z,96554.53
2023-02-04T03:27:55.074Z,96542.03
2023-02-04T03:30:25.525Z,96556.41
2023-02-04T03:32:53.961Z,96550.59
2023-02-04T03:35:22.212Z,96554.13
2023-02-04T03:37:50.172Z,96551.56
2023-02-04T03:40:18.317Z,96545.03
2023-02-04T03:42:46.204Z,96545.72
2023-02-04T03:45:14.176Z,96542.84
2023-02-04T03:47:43.476Z,96542.31
2023-02-04T03:50:13.968Z,96546.25
2023-02-04T03:52:41.879Z,96531.88
2023-02-04T03:55:10.053Z,96543.66
2023-02-04T03:57:37.996Z,96540.13
2023-02-04T04:00:06.511Z,96548.81
2023-02-04T04:02:39.750Z,96542.59
2023-02-04T04:05:10.601Z,96539.72
2023-02-04T04:07:38.578Z,96539.31
2023-02-04T04:10:06.895Z,96528.47
2023-02-04T04:12:34.808Z,96531.72
2023-02-04T04:15:02.734Z,96531.44
2023-02-04T04:17:30.735Z,96529.25
2023-02-04T04:19:58.647Z,96533.84
2023-02-04T04:22:27.940Z,96528.38
2023-02-04T04:24:56.156Z,96526.50
2023-02-04T04:27:24.056Z,96523.78
2023-02-04T04:29:52.098Z,96535.19
2023-02-04T04:32:20.087Z,96537.38
2023-02-04T04:34:47.940Z,96538.47
2023-02-04T04:37:15.886Z,96530.88
2023-02-04T04:39:45.158Z,96537.94
2023-02-04T04:42:13.123Z,96546.09
2023-02-04T04:44:41.038Z,96536.88
2023-02-04T04:47:08.993Z,96537.13
2023-02-04T04:49:36.962Z,96527.09
2023-02-04T04:52:05.181Z,96534.97
2023-02-04T04:54:33.064Z,96536.06
2023-02-04T04:57:02.322Z,96529.56
2023-02-04T04:59:30.233Z,96540.16
2023-02-04T05:01:58.134Z,96532.56
2023-02-04T05:04:26.069Z,96528.59
2023-02-04T05:06:53.962Z,96512.47
2023-02-04T05:09:21.834Z,96529.56
2023-02-04T05:11:49.755Z,96520.34
2023-02-04T05:14:19.051Z,96524.97
2023-02-04T05:16:46.990Z,96532.03
2023-02-04T05:19:14.881Z,96543.38
2023-02-04T05:21:42.939Z,96523.88
2023-02-04T05:24:10.820Z,96521.72
2023-02-04T05:26:38.775Z,96524.28
2023-02-04T05:29:07.050Z,96520.75
2023-02-04T05:31:36.405Z,96528.63
2023-02-04T05:34:04.379Z,96524.28
2023-02-04T05:36:32.284Z,96530.13
2023-02-04T05:39:00.204Z,96538.25
2023-02-04T05:41:28.086Z,96546.66
2023-02-04T05:43:55.992Z,96545.03
2023-02-04T05:46:23.914Z,96546.38
2023-02-04T05:48:53.381Z,96544.84
2023-02-04T05:51:21.273Z,96548.13
2023-02-04T05:53:49.648Z,96562.09
2023-02-04T05:56:17.567Z,96562.38
2023-02-04T05:58:45.505Z,96564.81
2023-02-04T06:01:13.656Z,96564.56
2023-02-04T06:03:41.609Z,96557.75
2023-02-04T06:06:10.915Z,96567.13
2023-02-04T06:08:38.836Z,96575.53
2023-02-04T06:11:07.160Z,96581.09
2023-02-04T06:13:35.061Z,96570.50
2023-02-04T06:16:02.957Z,96577.13
2023-02-04T06:18:30.855Z,96567.63
2023-02-04T06:20:58.769Z,96569.94
2023-02-04T06:23:28.071Z,96570.59
2023-02-04T06:25:55.999Z,96571.31
2023-02-04T06:28:23.894Z,96560.72
2023-02-04T06:30:51.926Z,96561.00
2023-02-04T06:33:21.395Z,96567.78
2023-02-04T06:35:49.346Z,96571.84
2023-02-04T06:38:17.398Z,96568.59
2023-02-04T06:40:49.403Z,96572.53
2023-02-04T06:43:17.681Z,96582.72
2023-02-04T06:45:45.700Z,96577.56
2023-02-04T06:48:13.637Z,96583.81
2023-02-04T06:50:41.544Z,96580.00
2023-02-04T06:53:09.482Z,96578.53
2023-02-04T06:55:37.492Z,96581.38
2023-02-04T06:58:06.811Z,96585.72
2023-02-04T07:00:34.986Z,96588.16
2023-02-04T07:03:03.040Z,96580.03
2023-02-04T07:05:31.421Z,96583.81
2023-02-04T07:07:59.365Z,96581.50
2023-02-04T07:10:27.288Z,96591.41
2023-02-04T07:12:55.255Z,96594.66
2023-02-04T07:15:24.643Z,96583.28
2023-02-04T07:17:52.570Z,96587.59
2023-02-04T07:20:20.779Z,96590.88
2023-02-04T07:22:48.699Z,96592.25
2023-02-04T07:25:17.934Z,96596.00
2023-02-04T07:27:46.032Z,96593.03
2023-02-04T07:30:14.746Z,96598.75
2023-02-04T07:32:44.012Z,96605.78
2023-02-04T07:35:12.574Z,96610.41
2023-02-04T07:37:40.461Z,96610.13
2023-02-04T07:40:10.293Z,96606.06
2023-02-04T07:42:38.236Z,96607.44
2023-02-04T07:45:12.157Z,96607.16
2023-02-04T07:47:40.037Z,96616.91
2023-02-04T07:50:09.878Z,96613.94
2023-02-04T07:52:37.744Z,96619.63
2023-02-04T07:55:06.027Z,96609.03
2023-02-04T07:57:33.964Z,96620.69
2023-02-04T08:00:01.918Z,96620.31
2023-02-04T08:02:29.936Z,96627.22
2023-02-04T08:04:57.861Z,96623.34
2023-02-04T08:07:27.241Z,96626.47
2023-02-04T08:09:55.146Z,96624.66
2023-02-04T08:12:23.053Z,96630.59
2023-02-04T08:14:51.029Z,96633.31
2023-02-04T08:17:18.888Z,96631.94
2023-02-04T08:19:46.788Z,96637.47
2023-02-04T08:22:14.722Z,96635.19
2023-02-04T08:24:44.005Z,96627.81
2023-02-04T08:27:12.659Z,96622.66
2023-02-04T08:29:40.578Z,96622.66
2023-02-04T08:32:10.075Z,96613.53
2023-02-04T08:34:38.106Z,96616.66
2023-02-04T08:37:06.207Z,96622.63
2023-02-04T08:39:34.120Z,96615.25
2023-02-04T08:42:03.406Z,96614.47
2023-02-04T08:44:31.316Z,96613.28
2023-02-04T08:46:59.261Z,96619.63
2023-02-04T08:49:27.418Z,96607.06
2023-02-04T08:51:55.373Z,96610.03
2023-02-04T08:54:23.278Z,96622.28
2023-02-04T08:56:51.180Z,96617.13
2023-02-04T08:59:21.768Z,96620.66
2023-02-04T09:01:52.578Z,96613.03
2023-02-04T09:04:21.428Z,96609.47
2023-02-04T09:06:49.771Z,96620.34
2023-02-04T09:09:17.836Z,96607.06
2023-02-04T09:11:45.820Z,96614.75
2023-02-04T09:14:13.949Z,96613.56
2023-02-04T09:16:43.305Z,96612.44
2023-02-04T09:19:16.268Z,96607.28
2023-02-04T09:21:44.187Z,96616.78
2023-02-04T09:24:12.063Z,96613.78
2023-02-04T09:26:39.958Z,96622.78
2023-02-04T09:29:07.851Z,96613.25
2023-02-04T09:31:35.773Z,96615.91
2023-02-04T09:34:05.080Z,96608.13
2023-02-04T09:36:37.909Z,96613.56
2023-02-04T09:39:07.039Z,96610.03
2023-02-04T09:41:36.061Z,96610.81
2023-02-04T09:44:06.142Z,96618.41
2023-02-04T09:46:34.457Z,96614.81
2023-02-04T09:49:03.673Z,96613.19
2023-02-04T09:51:35.514Z,96619.97
2023-02-04T09:54:09.873Z,96611.00
2023-02-04T09:56:37.876Z,96614.81
2023-02-04T09:59:06.445Z,96621.78
2023-02-04T10:01:34.388Z,96619.69
2023-02-04T10:04:03.167Z,96614.53
2023-02-04T10:06:32.871Z,96614.53
2023-02-04T10:09:00.852Z,96619.16
2023-02-04T10:11:31.651Z,96620.69
2023-02-04T10:13:59.654Z,96629.72
2023-02-04T10:16:31.239Z,96620.16
2023-02-04T10:19:00.636Z,96622.75
2023-02-04T10:21:30.272Z,96629.25
2023-02-04T10:24:00.696Z,96616.03
2023-02-04T10:26:31.530Z,96615.44
2023-02-04T10:29:01.562Z,96618.69
2023-02-04T10:31:36.092Z,96613.22
2023-02-04T10:34:06.104Z,96620.38
2023-02-04T10:36:34.086Z,96615.78
2023-02-04T10:39:04.706Z,96615.38
2023-02-04T10:41:33.529Z,96607.66
2023-02-04T10:44:06.153Z,96617.81
2023-02-04T10:46:34.116Z,96602.97
2023-02-04T10:49:04.865Z,96601.84
2023-02-04T10:51:33.344Z,96595.47
2023-02-04T10:54:18.760Z,96599.09
2023-02-04T10:56:48.040Z,96577.03
2023-02-04T10:59:26.782Z,96582.25
2023-02-04T11:01:57.194Z,96565.72
2023-02-04T11:04:25.453Z,96568.94
2023-02-04T11:06:54.373Z,96563.59
2023-02-04T11:09:22.848Z,96561.13
2023-02-04T11:11:52.871Z,96564.66
2023-02-04T11:14:29.323Z,96551.59
2023-02-04T11:17:01.061Z,96545.13
2023-02-04T11:19:35.286Z,96546.06
2023-02-04T11:22:23.719Z,96552.34
2023-02-04T11:24:52.541Z,96546.47
2023-02-04T11:27:25.170Z,96547.59
2023-02-04T11:29:53.929Z,96542.53
2023-02-04T11:32:34.826Z,96533.63
2023-02-04T11:35:25.434Z,96526.72
2023-02-04T11:37:55.049Z,96529.28
2023-02-04T11:40:29.876Z,96522.75
2023-02-04T11:43:01.965Z,96514.53
2023-02-04T11:45:33.253Z,96517.75
2023-02-04T11:48:03.951Z,96516.38
2023-02-04T11:50:33.805Z,96511.97
2023-02-04T11:53:03.060Z,96518.13
2023-02-04T11:55:33.371Z,96517.66
2023-02-04T11:58:03.079Z,96511.53
2023-02-04T12:00:33.234Z,96510.19
2023-02-04T12:03:06.178Z,96506.97
2023-02-04T12:05:41.016Z,96508.22
2023-02-04T12:08:14.024Z,96509.41
2023-02-04T12:10:49.668Z,96514.69
2023-02-04T12:13:23.735Z,96503.91
2023-02-04T12:15:59.321Z,96504.47
2023-02-04T12:18:28.768Z,96498.19
2023-02-04T12:20:57.500Z,96494.09
2023-02-04T12:23:26.085Z,96488.16
2023-02-04T12:25:54.543Z,96491.47
2023-02-04T12:28:24.404Z,96483.63
2023-02-04T12:30:52.497Z,96498.38
2023-02-04T12:33:20.488Z,96493.81
2023-02-04T12:35:48.586Z,96489.03
2023-02-04T12:38:16.518Z,96496.22
2023-02-04T12:40:44.688Z,96477.34
2023-02-04T12:43:12.653Z,96480.22
2023-02-04T12:45:45.745Z,96493.50
2023-02-04T12:48:15.104Z,96491.53
2023-02-04T12:50:43.104Z,96484.25
2023-02-04T12:53:11.096Z,96489.53
2023-02-04T12:55:39.094Z,96490.28
2023-02-04T12:58:06.992Z,96484.34
2023-02-04T13:00:34.973Z,96476.97
2023-02-04T13:03:05.324Z,96490.09
2023-02-04T13:05:34.146Z,96480.91
2023-02-04T13:08:02.174Z,96483.31
2023-02-04T13:10:30.224Z,96486.28
2023-02-04T13:12:58.131Z,96485.03
2023-02-04T13:15:26.024Z,96465.78
2023-02-04T13:17:54.021Z,96471.00
2023-02-04T13:20:23.496Z,96456.44
2023-02-04T13:22:51.425Z,96478.41
2023-02-04T13:25:20.531Z,96475.50
2023-02-04T13:27:48.505Z,96463.81
2023-02-04T13:30:16.987Z,96464.50
2023-02-04T13:32:44.991Z,96466.88
2023-02-04T13:35:12.876Z,96463.81
2023-02-04T13:37:42.141Z,96457.47
2023-02-04T13:40:12.108Z,96459.81
2023-02-04T13:42:40.069Z,96456.72
2023-02-04T13:45:12.269Z,96453.41
2023-02-04T13:47:40.528Z,96456.88
2023-02-04T13:50:09.421Z,96449.81
2023-02-04T13:52:37.369Z,96441.38
2023-02-04T13:55:07.390Z,96457.50
2023-02-04T13:57:37.367Z,96462.09
2023-02-04T14:00:06.883Z,96454.78
2023-02-04T14:02:40.535Z,96458.47
2023-02-04T14:05:08.629Z,96455.31
2023-02-04T14:07:36.574Z,96448.66
2023-02-04T14:10:06.584Z,96454.50
2023-02-04T14:12:34.548Z,96459.66
2023-02-04T14:15:02.459Z,96458.13
2023-02-04T14:17:30.366Z,96458.25
2023-02-04T14:19:58.287Z,96458.63
2023-02-04T14:22:26.197Z,96458.25
2023-02-04T14:24:54.140Z,96455.13
2023-02-04T14:27:24.241Z,96462.09
2023-02-04T14:29:52.131Z,96457.66
2023-02-04T14:32:20.931Z,96457.81
2023-02-04T14:34:48.965Z,96457.09
2023-02-04T14:37:16.876Z,96462.25
2023-02-04T14:39:44.828Z,96456.50
2023-02-04T14:42:12.700Z,96458.88
2023-02-04T14:44:41.977Z,96453.16
2023-02-04T14:47:09.886Z,96456.09
2023-02-04T14:49:38.133Z,96456.88
2023-02-04T14:52:06.508Z,96463.81
2023-02-04T14:54:34.476Z,96467.66
2023-02-04T14:57:02.551Z,96459.81
2023-02-04T14:59:30.508Z,96469.50
2023-02-04T15:01:59.790Z,96472.00
2023-02-04T15:04:27.792Z,96470.28
2023-02-04T15:06:57.654Z,96473.50
2023-02-04T15:09:25.637Z,96471.88
2023-02-04T15:11:53.592Z,96471.75
2023-02-04T15:14:21.508Z,96470.38
2023-02-04T15:16:49.486Z,96474.84
2023-02-04T15:19:19.506Z,96478.44
2023-02-04T15:21:47.581Z,96469.94
2023-02-04T15:24:15.510Z,96477.59
2023-02-04T15:26:43.431Z,96471.63
2023-02-04T15:29:11.346Z,96469.13
2023-02-04T15:31:39.319Z,96472.13
2023-02-04T15:34:07.330Z,96475.97
2023-02-04T15:36:36.596Z,96484.91
2023-02-04T15:39:05.224Z,96477.72
2023-02-04T15:41:33.235Z,96482.50
2023-02-04T15:44:01.111Z,96476.44
2023-02-04T15:46:29.040Z,96477.91
2023-02-04T15:48:56.991Z,96486.13
2023-02-04T15:51:24.943Z,96486.88
2023-02-04T15:53:54.260Z,96481.19
2023-02-04T15:56:22.224Z,96479.69
2023-02-04T15:58:50.170Z,96484.06
2023-02-04T16:01:18.082Z,96486.06
2023-02-04T16:03:47.274Z,96483.19
2023-02-04T16:06:15.161Z,96485.59
2023-02-04T16:08:43.185Z,96483.19
2023-02-04T16:11:12.435Z,96481.63
2023-02-04T16:13:40.320Z,96491.94
2023-02-04T16:16:09.040Z,96491.94
2023-02-04T16:18:36.976Z,96490.94
2023-02-04T16:21:05.185Z,96490.66
2023-02-04T16:23:33.225Z,96493.94
2023-02-04T16:26:01.074Z,96489.44
2023-02-04T16:28:30.368Z,96498.72
2023-02-04T16:30:58.422Z,96488.25
2023-02-04T16:33:27.965Z,96487.16
2023-02-04T16:36:00.975Z,96496.34
2023-02-04T16:38:29.929Z,96502.38
2023-02-04T16:40:58.395Z,96498.91
2023-02-04T16:43:26.748Z,96499.63
2023-02-04T16:45:56.204Z,96502.06
2023-02-04T16:48:24.979Z,96497.78
2023-02-04T16:50:52.892Z,96505.28
2023-02-04T16:53:20.802Z,96499.56
2023-02-04T16:55:49.165Z,96504.03
2023-02-04T16:58:18.104Z,96502.16
2023-02-04T17:00:46.053Z,96509.34
2023-02-04T17:03:16.061Z,96511.66
2023-02-04T17:05:44.371Z,96512.09
2023-02-04T17:08:13.672Z,96512.09
2023-02-04T17:10:59.606Z,96517.03
2023-02-04T17:13:27.518Z,96520.63
2023-02-04T17:16:00.644Z,96510.91
2023-02-04T17:18:31.255Z,96519.22
2023-02-04T17:21:00.268Z,96509.97
2023-02-04T17:23:29.335Z,96520.75
2023-02-04T17:25:57.252Z,96517.88
2023-02-04T17:28:26.213Z,96509.78
2023-02-04T17:30:54.299Z,96521.38
2023-02-04T17:33:22.307Z,96527.69
2023-02-04T17:35:51.678Z,96525.44
2023-02-04T17:38:19.559Z,96521.94
2023-02-04T17:40:47.747Z,96534.66
2023-02-04T17:43:15.624Z,96528.66
2023-02-04T17:45:43.855Z,96535.66
2023-02-04T17:48:11.756Z,96532.56
2023-02-04T17:50:40.292Z,96526.91
2023-02-04T17:53:11.407Z,96539.25
2023-02-04T17:55:40.010Z,96535.47
2023-02-04T17:58:14.245Z,96536.72
2023-02-04T18:00:44.512Z,96538.69
2023-02-04T18:03:14.010Z,96541.66
2023-02-04T18:05:46.106Z,96539.34
2023-02-04T18:08:17.068Z,96542.16
2023-02-04T18:10:46.487Z,96546.50
2023-02-04T18:13:17.279Z,96540.03
2023-02-04T18:15:47.418Z,96541.75
2023-02-04T18:18:26.292Z,96544.88
2023-02-04T18:21:15.420Z,96540.03
2023-02-04T18:23:46.014Z,96537.13
2023-02-04T18:26:17.825Z,96537.47
2023-02-04T18:28:48.816Z,96540.25
2023-02-04T18:31:34.313Z,96541.41
2023-02-04T18:34:03.147Z,96537.16
2023-02-04T18:36:34.477Z,96542.06
2023-02-04T18:39:20.323Z,96545.31
2023-02-04T18:41:50.579Z,96542.69
2023-02-04T18:44:31.084Z,96548.88
2023-02-04T18:46:59.422Z,96549.22
2023-02-04T18:49:29.021Z,96556.09
2023-02-04T18:51:59.797Z,96553.50
2023-02-04T18:54:35.523Z,96550.59
2023-02-04T18:57:21.692Z,96554.19
2023-02-04T18:59:49.893Z,96560.31
2023-02-04T19:02:36.396Z,96556.78
2023-02-04T19:05:19.078Z,96548.00
2023-02-04T19:07:46.965Z,96553.56
2023-02-04T19:10:29.256Z,96557.13
2023-02-04T19:13:12.044Z,96559.78
2023-02-04T19:15:40.317Z,96564.78
2023-02-04T19:18:22.492Z,96563.97
2023-02-04T19:20:50.489Z,96565.78
2023-02-04T19:23:21.783Z,96562.03
2023-02-04T19:25:52.343Z,96567.88
2023-02-04T19:28:29.218Z,96563.00
2023-02-04T19:31:02.026Z,96570.81
2023-02-04T19:33:37.583Z,96569.81
2023-02-04T19:36:22.565Z,96576.34
2023-02-04T19:38:56.494Z,96571.94
2023-02-04T19:41:32.680Z,96574.25
2023-02-04T19:44:34.606Z,96574.25
2023-02-04T19:47:27.088Z,96574.25
2023-02-04T19:50:03.399Z,96570.19
2023-02-04T19:52:35.943Z,96575.72
2023-02-04T19:55:25.712Z,96571.69
2023-02-04T19:57:56.196Z,96568.91
2023-02-04T20:00:58.920Z,96578.00
2023-02-04T20:03:31.427Z,96570.88
2023-02-04T20:06:02.962Z,96564.38
2023-02-04T20:08:45.933Z,96575.72
2023-02-04T20:11:35.133Z,96571.50
2023-02-04T20:14:25.874Z,96574.75
2023-02-04T20:16:57.526Z,96574.28
2023-02-04T20:19:35.271Z,96575.09
2023-02-04T20:22:33.063Z,96578.66
2023-02-04T20:25:29.025Z,96582.88
2023-02-04T20:28:01.036Z,96586.63
2023-02-04T20:30:32.042Z,96587.44
2023-02-04T20:33:13.675Z,96595.84
2023-02-04T20:36:16.648Z,96591.66
2023-02-04T20:38:45.921Z,96596.53
2023-02-04T20:41:19.914Z,96599.44
2023-02-04T20:43:50.189Z,96600.09
2023-02-04T20:46:22.815Z,96597.34
2023-02-04T20:48:51.288Z,96583.84
2023-02-04T20:51:23.438Z,96592.78
2023-02-04T20:53:52.497Z,96592.94
2023-02-04T20:56:25.504Z,96598.16
2023-02-04T20:58:56.602Z,96604.97
2023-02-04T21:01:33.856Z,96600.44
2023-02-04T21:04:16.234Z,96614.41
2023-02-04T21:06:44.347Z,96611.44
2023-02-04T21:09:21.036Z,96608.88
2023-02-04T21:11:48.991Z,96610.16
2023-02-04T21:14:17.023Z,96610.16
2023-02-04T21:16:46.290Z,96606.59
2023-02-04T21:19:16.215Z,96618.59
2023-02-04T21:21:44.128Z,96625.25
2023-02-04T21:24:12.192Z,96618.94
2023-02-04T21:26:40.511Z,96627.34
2023-02-04T21:29:08.547Z,96619.72
2023-02-04T21:31:36.608Z,96618.13
2023-02-04T21:34:06.065Z,96624.44
2023-02-04T21:36:34.005Z,96624.44
2023-02-04T21:39:02.078Z,96625.09
2023-02-04T21:41:29.982Z,96627.38
2023-02-04T21:43:58.126Z,96621.53
2023-02-04T21:46:26.113Z,96622.69
2023-02-04T21:48:54.152Z,96618.78
2023-02-04T21:51:23.490Z,96616.81
2023-02-04T21:53:51.421Z,96618.28
2023-02-04T21:56:19.360Z,96622.84
2023-02-04T21:58:47.286Z,96621.88
2023-02-04T22:01:15.180Z,96621.88
2023-02-04T22:03:43.151Z,96628.16
2023-02-04T22:06:11.296Z,96625.44
2023-02-04T22:08:40.599Z,96633.88
2023-02-04T22:11:08.609Z,96637.75
2023-02-04T22:13:36.519Z,96634.81
2023-02-04T22:16:04.549Z,96643.91
2023-02-04T22:18:32.505Z,96646.66
2023-02-04T22:21:00.508Z,96648.44
2023-02-04T22:23:28.447Z,96648.13
2023-02-04T22:25:57.701Z,96644.22
2023-02-04T22:28:25.577Z,96646.34
2023-02-04T22:30:54.384Z,96653.63
2023-02-04T22:33:22.353Z,96655.56
2023-02-04T22:35:50.257Z,96666.94
2023-02-04T22:38:20.093Z,96666.59
2023-02-04T22:40:48.949Z,96663.03
2023-02-04T22:43:18.239Z,96684.94
2023-02-04T22:45:46.136Z,96678.13
2023-02-04T22:48:14.086Z,96680.88
2023-02-04T22:50:41.995Z,96678.91
2023-02-04T22:53:09.922Z,96683.75
2023-02-04T22:55:37.777Z,96681.00
2023-02-04T22:58:05.701Z,96673.38
2023-02-04T23:00:35.079Z,96675.66
2023-02-04T23:03:02.988Z,96671.09
2023-02-04T23:05:31.126Z,96681.81
2023-02-04T23:07:59.191Z,96684.03
2023-02-04T23:10:27.149Z,96690.03
2023-02-04T23:12:55.036Z,96687.09
2023-02-04T23:15:23.107Z,96690.19
2023-02-04T23:17:52.797Z,96695.31
2023-02-04T23:20:21.002Z,96701.44
2023-02-04T23:22:48.996Z,96696.28
2023-02-04T23:25:17.041Z,96699.19
2023-02-04T23:27:45.058Z,96694.28
2023-02-04T23:30:14.495Z,96695.59
2023-02-04T23:32:42.472Z,96688.78
2023-02-04T23:35:11.794Z,96694.91
2023-02-04T23:37:39.851Z,96699.78
2023-02-04T23:40:08.696Z,96700.78
2023-02-04T23:42:36.614Z,96700.47
2023-02-04T23:45:04.946Z,96697.34
2023-02-04T23:47:32.914Z,96697.16
2023-02-04T23:50:00.952Z,96704.28
2023-02-04T23:52:30.305Z,96702.00
2023-02-04T23:54:58.250Z,96704.75
2023-02-04T23:57:26.218Z,96709.75
2023-02-04T23:59:54.213Z,96706.81
